sensor_id;sensor_type;location;lat;lon;timestamp;P1;durP1;ratioP1;P2;durP2;ratioP2
44456;SDS011;30159;49.316;8.558;2022-07-29T00:01:08;4.80;;;3.33;;
44456;SDS011;30159;49.316;8.558;2022-07-29T00:03:34;8.83;;;2.73;;
44456;SDS011;30159;49.316;8.558;2022-07-29T00:06:01;4.13;;;3.23;;
44456;SDS011;30159;49.316;8.558;2022-07-29T00:08:28;5.77;;;3.57;;
44456;SDS011;30159;49.316;8.558;2022-07-29T00:10:56;2.57;;;2.47;;
44456;SDS011;30159;49.316;8.558;2022-07-29T00:13:22;3.30;;;3.10;;
44456;SDS011;30159;49.316;8.558;2022-07-29T00:15:49;4.40;;;4.00;;
44456;SDS011;30159;49.316;8.558;2022-07-29T00:18:16;4.23;;;2.90;;
44456;SDS011;30159;49.316;8.558;2022-07-29T00:20:42;2.60;;;2.50;;
44456;SDS011;30159;49.316;8.558;2022-07-29T00:23:09;3.10;;;2.90;;
44456;SDS011;30159;49.316;8.558;2022-07-29T00:25:36;3.27;;;3.07;;
44456;SDS011;30159;49.316;8.558;2022-07-29T00:28:04;3.53;;;3.30;;
44456;SDS011;30159;49.316;8.558;2022-07-29T00:30:32;3.10;;;2.90;;
44456;SDS011;30159;49.316;8.558;2022-07-29T00:32:58;4.03;;;3.73;;
44456;SDS011;30159;49.316;8.558;2022-07-29T00:35:25;3.30;;;3.00;;
44456;SDS011;30159;49.316;8.558;2022-07-29T00:38:09;3.90;;;3.53;;
44456;SDS011;30159;49.316;8.558;2022-07-29T00:40:36;3.30;;;3.00;;
44456;SDS011;30159;49.316;8.558;2022-07-29T00:43:04;3.30;;;3.10;;
44456;SDS011;30159;49.316;8.558;2022-07-29T00:45:31;3.60;;;3.40;;
44456;SDS011;30159;49.316;8.558;2022-07-29T00:47:58;3.40;;;3.20;;
44456;SDS011;30159;49.316;8.558;2022-07-29T00:50:25;3.40;;;3.20;;
44456;SDS011;30159;49.316;8.558;2022-07-29T00:52:52;3.57;;;3.37;;
44456;SDS011;30159;49.316;8.558;2022-07-29T00:55:19;4.07;;;3.87;;
44456;SDS011;30159;49.316;8.558;2022-07-29T00:57:46;4.90;;;3.80;;
44456;SDS011;30159;49.316;8.558;2022-07-29T01:00:15;3.70;;;3.50;;
44456;SDS011;30159;49.316;8.558;2022-07-29T01:02:44;4.23;;;3.60;;
44456;SDS011;30159;49.316;8.558;2022-07-29T01:05:13;3.00;;;2.90;;
44456;SDS011;30159;49.316;8.558;2022-07-29T01:07:40;3.90;;;3.70;;
44456;SDS011;30159;49.316;8.558;2022-07-29T01:10:09;4.13;;;3.83;;
44456;SDS011;30159;49.316;8.558;2022-07-29T01:12:38;3.40;;;3.20;;
44456;SDS011;30159;49.316;8.558;2022-07-29T01:15:06;3.37;;;3.17;;
44456;SDS011;30159;49.316;8.558;2022-07-29T01:17:39;3.70;;;3.50;;
44456;SDS011;30159;49.316;8.558;2022-07-29T01:20:12;4.30;;;3.40;;
44456;SDS011;30159;49.316;8.558;2022-07-29T01:22:52;4.43;;;4.13;;
44456;SDS011;30159;49.316;8.558;2022-07-29T01:25:38;3.70;;;3.50;;
44456;SDS011;30159;49.316;8.558;2022-07-29T01:31:24;3.63;;;3.40;;
44456;SDS011;30159;49.316;8.558;2022-07-29T01:33:58;3.60;;;3.40;;
44456;SDS011;30159;49.316;8.558;2022-07-29T01:36:30;3.70;;;3.50;;
44456;SDS011;30159;49.316;8.558;2022-07-29T01:39:03;4.00;;;3.70;;
44456;SDS011;30159;49.316;8.558;2022-07-29T01:41:34;4.23;;;3.93;;
44456;SDS011;30159;49.316;8.558;2022-07-29T01:44:07;4.27;;;3.83;;
44456;SDS011;30159;49.316;8.558;2022-07-29T01:46:40;4.10;;;3.80;;
44456;SDS011;30159;49.316;8.558;2022-07-29T01:49:11;5.70;;;4.33;;
44456;SDS011;30159;49.316;8.558;2022-07-29T01:51:44;4.07;;;3.87;;
44456;SDS011;30159;49.316;8.558;2022-07-29T01:54:14;3.87;;;3.67;;
44456;SDS011;30159;49.316;8.558;2022-07-29T01:56:46;4.43;;;3.97;;
44456;SDS011;30159;49.316;8.558;2022-07-29T01:59:17;4.80;;;4.50;;
44456;SDS011;30159;49.316;8.558;2022-07-29T02:01:45;3.70;;;3.47;;
44456;SDS011;30159;49.316;8.558;2022-07-29T02:04:14;5.03;;;3.50;;
44456;SDS011;30159;49.316;8.558;2022-07-29T02:06:43;3.80;;;3.60;;
44456;SDS011;30159;49.316;8.558;2022-07-29T02:09:12;3.60;;;3.40;;
44456;SDS011;30159;49.316;8.558;2022-07-29T02:11:41;4.23;;;3.90;;
44456;SDS011;30159;49.316;8.558;2022-07-29T02:14:22;4.23;;;3.93;;
44456;SDS011;30159;49.316;8.558;2022-07-29T02:16:51;3.97;;;3.67;;
44456;SDS011;30159;49.316;8.558;2022-07-29T02:19:21;4.07;;;3.83;;
44456;SDS011;30159;49.316;8.558;2022-07-29T02:21:51;3.17;;;2.97;;
44456;SDS011;30159;49.316;8.558;2022-07-29T02:24:19;4.80;;;4.50;;
44456;SDS011;30159;49.316;8.558;2022-07-29T02:26:47;4.23;;;4.03;;
44456;SDS011;30159;49.316;8.558;2022-07-29T02:29:15;4.83;;;4.53;;
44456;SDS011;30159;49.316;8.558;2022-07-29T02:31:46;4.53;;;4.20;;
44456;SDS011;30159;49.316;8.558;2022-07-29T02:34:15;4.40;;;4.20;;
44456;SDS011;30159;49.316;8.558;2022-07-29T02:36:44;4.10;;;3.90;;
44456;SDS011;30159;49.316;8.558;2022-07-29T02:39:11;3.70;;;3.40;;
44456;SDS011;30159;49.316;8.558;2022-07-29T02:41:41;4.70;;;4.43;;
44456;SDS011;30159;49.316;8.558;2022-07-29T02:44:12;4.57;;;4.20;;
44456;SDS011;30159;49.316;8.558;2022-07-29T02:46:43;4.87;;;4.57;;
44456;SDS011;30159;49.316;8.558;2022-07-29T02:49:18;5.20;;;3.70;;
44456;SDS011;30159;49.316;8.558;2022-07-29T02:51:53;4.27;;;4.07;;
44456;SDS011;30159;49.316;8.558;2022-07-29T02:54:25;4.87;;;4.60;;
44456;SDS011;30159;49.316;8.558;2022-07-29T02:56:57;4.50;;;4.20;;
44456;SDS011;30159;49.316;8.558;2022-07-29T02:59:27;4.70;;;4.27;;
44456;SDS011;30159;49.316;8.558;2022-07-29T03:01:58;4.40;;;4.20;;
44456;SDS011;30159;49.316;8.558;2022-07-29T03:04:26;4.27;;;3.50;;
44456;SDS011;30159;49.316;8.558;2022-07-29T03:06:55;4.20;;;4.00;;
44456;SDS011;30159;49.316;8.558;2022-07-29T03:09:24;4.70;;;4.40;;
44456;SDS011;30159;49.316;8.558;2022-07-29T03:11:52;4.63;;;4.00;;
44456;SDS011;30159;49.316;8.558;2022-07-29T03:14:19;5.00;;;4.60;;
44456;SDS011;30159;49.316;8.558;2022-07-29T03:16:48;4.90;;;4.50;;
44456;SDS011;30159;49.316;8.558;2022-07-29T03:19:16;5.00;;;4.53;;
44456;SDS011;30159;49.316;8.558;2022-07-29T03:21:44;5.27;;;4.90;;
44456;SDS011;30159;49.316;8.558;2022-07-29T03:24:22;5.10;;;4.70;;
44456;SDS011;30159;49.316;8.558;2022-07-29T03:26:50;4.60;;;4.30;;
44456;SDS011;30159;49.316;8.558;2022-07-29T03:29:17;5.47;;;5.03;;
44456;SDS011;30159;49.316;8.558;2022-07-29T03:31:44;5.50;;;5.10;;
44456;SDS011;30159;49.316;8.558;2022-07-29T03:34:10;4.27;;;3.97;;
44456;SDS011;30159;49.316;8.558;2022-07-29T03:36:38;4.67;;;4.47;;
44456;SDS011;30159;49.316;8.558;2022-07-29T03:39:05;5.77;;;5.37;;
44456;SDS011;30159;49.316;8.558;2022-07-29T03:41:33;4.83;;;4.20;;
44456;SDS011;30159;49.316;8.558;2022-07-29T03:44:01;5.37;;;5.03;;
44456;SDS011;30159;49.316;8.558;2022-07-29T03:46:28;6.77;;;4.60;;
44456;SDS011;30159;49.316;8.558;2022-07-29T03:48:58;5.00;;;4.60;;
44456;SDS011;30159;49.316;8.558;2022-07-29T03:51:27;5.17;;;4.77;;
44456;SDS011;30159;49.316;8.558;2022-07-29T03:53:55;4.53;;;4.23;;
44456;SDS011;30159;49.316;8.558;2022-07-29T03:56:22;6.07;;;4.73;;
44456;SDS011;30159;49.316;8.558;2022-07-29T03:58:49;4.67;;;4.37;;
44456;SDS011;30159;49.316;8.558;2022-07-29T04:01:18;5.93;;;4.77;;
44456;SDS011;30159;49.316;8.558;2022-07-29T04:03:46;5.10;;;4.80;;
44456;SDS011;30159;49.316;8.558;2022-07-29T04:06:13;5.53;;;5.20;;
44456;SDS011;30159;49.316;8.558;2022-07-29T04:08:39;5.60;;;5.07;;
44456;SDS011;30159;49.316;8.558;2022-07-29T04:11:07;4.20;;;4.00;;
44456;SDS011;30159;49.316;8.558;2022-07-29T04:13:34;4.47;;;4.17;;
44456;SDS011;30159;49.316;8.558;2022-07-29T04:16:01;4.80;;;4.50;;
44456;SDS011;30159;49.316;8.558;2022-07-29T04:18:27;5.27;;;4.87;;
44456;SDS011;30159;49.316;8.558;2022-07-29T04:20:54;5.13;;;4.83;;
44456;SDS011;30159;49.316;8.558;2022-07-29T04:23:20;4.70;;;4.30;;
44456;SDS011;30159;49.316;8.558;2022-07-29T04:25:47;4.30;;;4.10;;
44456;SDS011;30159;49.316;8.558;2022-07-29T04:28:15;5.33;;;4.93;;
44456;SDS011;30159;49.316;8.558;2022-07-29T04:30:42;5.03;;;4.67;;
44456;SDS011;30159;49.316;8.558;2022-07-29T04:33:08;5.60;;;5.30;;
44456;SDS011;30159;49.316;8.558;2022-07-29T04:35:35;5.77;;;5.27;;
44456;SDS011;30159;49.316;8.558;2022-07-29T04:38:04;5.77;;;5.37;;
44456;SDS011;30159;49.316;8.558;2022-07-29T04:40:31;4.43;;;4.23;;
44456;SDS011;30159;49.316;8.558;2022-07-29T04:42:59;4.90;;;4.50;;
44456;SDS011;30159;49.316;8.558;2022-07-29T04:45:27;5.10;;;4.80;;
44456;SDS011;30159;49.316;8.558;2022-07-29T04:47:54;4.97;;;4.67;;
44456;SDS011;30159;49.316;8.558;2022-07-29T04:50:21;4.97;;;4.53;;
44456;SDS011;30159;49.316;8.558;2022-07-29T04:52:48;5.50;;;5.20;;
44456;SDS011;30159;49.316;8.558;2022-07-29T04:55:15;4.40;;;4.20;;
44456;SDS011;30159;49.316;8.558;2022-07-29T04:57:42;8.93;;;5.17;;
44456;SDS011;30159;49.316;8.558;2022-07-29T05:00:09;4.00;;;3.80;;
44456;SDS011;30159;49.316;8.558;2022-07-29T05:02:37;5.77;;;4.43;;
44456;SDS011;30159;49.316;8.558;2022-07-29T05:05:04;4.87;;;4.67;;
44456;SDS011;30159;49.316;8.558;2022-07-29T05:07:31;4.53;;;4.27;;
44456;SDS011;30159;49.316;8.558;2022-07-29T05:09:58;4.03;;;3.83;;
44456;SDS011;30159;49.316;8.558;2022-07-29T05:12:24;5.40;;;4.20;;
44456;SDS011;30159;49.316;8.558;2022-07-29T05:14:51;4.60;;;4.40;;
44456;SDS011;30159;49.316;8.558;2022-07-29T05:17:18;4.80;;;4.50;;
44456;SDS011;30159;49.316;8.558;2022-07-29T05:19:46;12.73;;;4.40;;
44456;SDS011;30159;49.316;8.558;2022-07-29T05:22:12;10.70;;;4.57;;
44456;SDS011;30159;49.316;8.558;2022-07-29T05:24:39;4.63;;;4.23;;
44456;SDS011;30159;49.316;8.558;2022-07-29T05:27:06;4.37;;;3.97;;
44456;SDS011;30159;49.316;8.558;2022-07-29T05:29:33;4.40;;;4.10;;
44456;SDS011;30159;49.316;8.558;2022-07-29T05:31:59;4.23;;;3.83;;
44456;SDS011;30159;49.316;8.558;2022-07-29T05:34:26;4.67;;;4.10;;
44456;SDS011;30159;49.316;8.558;2022-07-29T05:36:54;4.00;;;3.80;;
44456;SDS011;30159;49.316;8.558;2022-07-29T05:39:21;5.33;;;4.23;;
44456;SDS011;30159;49.316;8.558;2022-07-29T05:41:48;3.17;;;2.63;;
44456;SDS011;30159;49.316;8.558;2022-07-29T05:44:15;3.87;;;3.23;;
44456;SDS011;30159;49.316;8.558;2022-07-29T05:46:42;3.33;;;3.13;;
44456;SDS011;30159;49.316;8.558;2022-07-29T05:49:08;3.40;;;3.10;;
44456;SDS011;30159;49.316;8.558;2022-07-29T05:51:35;3.40;;;3.03;;
44456;SDS011;30159;49.316;8.558;2022-07-29T05:54:03;3.93;;;3.10;;
44456;SDS011;30159;49.316;8.558;2022-07-29T05:56:30;3.23;;;3.07;;
44456;SDS011;30159;49.316;8.558;2022-07-29T05:58:56;3.17;;;2.90;;
44456;SDS011;30159;49.316;8.558;2022-07-29T06:01:23;3.13;;;2.93;;
44456;SDS011;30159;49.316;8.558;2022-07-29T06:03:50;3.17;;;2.97;;
44456;SDS011;30159;49.316;8.558;2022-07-29T06:06:16;3.30;;;3.00;;
44456;SDS011;30159;49.316;8.558;2022-07-29T06:08:43;3.43;;;3.23;;
44456;SDS011;30159;49.316;8.558;2022-07-29T06:11:11;3.00;;;2.90;;
44456;SDS011;30159;49.316;8.558;2022-07-29T06:13:38;5.37;;;2.50;;
44456;SDS011;30159;49.316;8.558;2022-07-29T06:16:04;3.03;;;2.83;;
44456;SDS011;30159;49.316;8.558;2022-07-29T06:18:31;2.97;;;2.77;;
44456;SDS011;30159;49.316;8.558;2022-07-29T06:20:58;3.30;;;3.00;;
44456;SDS011;30159;49.316;8.558;2022-07-29T06:23:24;3.07;;;2.73;;
44456;SDS011;30159;49.316;8.558;2022-07-29T06:25:51;3.57;;;3.30;;
44456;SDS011;30159;49.316;8.558;2022-07-29T06:28:19;3.30;;;3.10;;
44456;SDS011;30159;49.316;8.558;2022-07-29T06:30:45;2.97;;;2.77;;
44456;SDS011;30159;49.316;8.558;2022-07-29T06:33:15;3.63;;;3.40;;
44456;SDS011;30159;49.316;8.558;2022-07-29T06:35:42;4.00;;;3.67;;
44456;SDS011;30159;49.316;8.558;2022-07-29T06:38:10;3.43;;;3.23;;
44456;SDS011;30159;49.316;8.558;2022-07-29T06:40:40;3.83;;;3.53;;
44456;SDS011;30159;49.316;8.558;2022-07-29T06:43:22;3.97;;;3.67;;
44456;SDS011;30159;49.316;8.558;2022-07-29T06:45:49;3.90;;;3.70;;
44456;SDS011;30159;49.316;8.558;2022-07-29T06:48:15;3.83;;;3.63;;
44456;SDS011;30159;49.316;8.558;2022-07-29T06:50:42;3.30;;;3.10;;
44456;SDS011;30159;49.316;8.558;2022-07-29T06:53:09;4.10;;;3.90;;
44456;SDS011;30159;49.316;8.558;2022-07-29T06:55:36;4.30;;;4.10;;
44456;SDS011;30159;49.316;8.558;2022-07-29T06:58:03;4.10;;;3.90;;
44456;SDS011;30159;49.316;8.558;2022-07-29T07:00:31;4.60;;;4.20;;
44456;SDS011;30159;49.316;8.558;2022-07-29T07:02:57;3.50;;;3.23;;
44456;SDS011;30159;49.316;8.558;2022-07-29T07:05:24;4.30;;;4.00;;
44456;SDS011;30159;49.316;8.558;2022-07-29T07:07:50;4.20;;;4.00;;
44456;SDS011;30159;49.316;8.558;2022-07-29T07:10:17;4.40;;;4.20;;
44456;SDS011;30159;49.316;8.558;2022-07-29T07:12:44;4.57;;;4.17;;
44456;SDS011;30159;49.316;8.558;2022-07-29T07:15:10;4.30;;;4.00;;
44456;SDS011;30159;49.316;8.558;2022-07-29T07:17:38;5.50;;;4.33;;
44456;SDS011;30159;49.316;8.558;2022-07-29T07:20:05;4.57;;;4.17;;
44456;SDS011;30159;49.316;8.558;2022-07-29T07:22:32;4.57;;;4.37;;
44456;SDS011;30159;49.316;8.558;2022-07-29T07:24:59;5.43;;;4.63;;
44456;SDS011;30159;49.316;8.558;2022-07-29T07:27:26;4.40;;;4.10;;
44456;SDS011;30159;49.316;8.558;2022-07-29T07:29:53;4.90;;;4.70;;
44456;SDS011;30159;49.316;8.558;2022-07-29T07:32:19;4.47;;;4.17;;
44456;SDS011;30159;49.316;8.558;2022-07-29T07:34:47;5.43;;;5.13;;
44456;SDS011;30159;49.316;8.558;2022-07-29T07:37:14;4.93;;;4.53;;
44456;SDS011;30159;49.316;8.558;2022-07-29T07:39:41;4.63;;;4.33;;
44456;SDS011;30159;49.316;8.558;2022-07-29T07:42:07;4.60;;;4.40;;
44456;SDS011;30159;49.316;8.558;2022-07-29T07:44:36;4.53;;;4.20;;
44456;SDS011;30159;49.316;8.558;2022-07-29T07:47:03;4.60;;;4.27;;
44456;SDS011;30159;49.316;8.558;2022-07-29T07:49:29;4.73;;;4.33;;
44456;SDS011;30159;49.316;8.558;2022-07-29T07:51:57;3.70;;;3.60;;
44456;SDS011;30159;49.316;8.558;2022-07-29T07:54:24;4.20;;;4.00;;
44456;SDS011;30159;49.316;8.558;2022-07-29T07:56:50;4.10;;;3.87;;
44456;SDS011;30159;49.316;8.558;2022-07-29T07:59:17;4.90;;;4.50;;
44456;SDS011;30159;49.316;8.558;2022-07-29T08:01:44;4.40;;;3.83;;
44456;SDS011;30159;49.316;8.558;2022-07-29T08:04:10;5.00;;;3.67;;
44456;SDS011;30159;49.316;8.558;2022-07-29T08:06:37;5.13;;;4.83;;
44456;SDS011;30159;49.316;8.558;2022-07-29T08:09:05;4.67;;;4.37;;
44456;SDS011;30159;49.316;8.558;2022-07-29T08:11:32;4.43;;;4.23;;
44456;SDS011;30159;49.316;8.558;2022-07-29T08:13:58;5.00;;;4.30;;
44456;SDS011;30159;49.316;8.558;2022-07-29T08:16:26;3.90;;;3.70;;
44456;SDS011;30159;49.316;8.558;2022-07-29T08:18:53;4.30;;;4.00;;
44456;SDS011;30159;49.316;8.558;2022-07-29T08:21:22;5.23;;;4.93;;
44456;SDS011;30159;49.316;8.558;2022-07-29T08:23:50;5.10;;;4.90;;
44456;SDS011;30159;49.316;8.558;2022-07-29T08:26:21;4.23;;;3.93;;
44456;SDS011;30159;49.316;8.558;2022-07-29T08:28:48;4.40;;;4.20;;
44456;SDS011;30159;49.316;8.558;2022-07-29T08:31:16;4.33;;;4.13;;
44456;SDS011;30159;49.316;8.558;2022-07-29T08:33:42;5.20;;;4.70;;
44456;SDS011;30159;49.316;8.558;2022-07-29T08:36:09;4.93;;;4.23;;
44456;SDS011;30159;49.316;8.558;2022-07-29T08:38:37;4.23;;;3.93;;
44456;SDS011;30159;49.316;8.558;2022-07-29T08:41:04;4.57;;;4.20;;
44456;SDS011;30159;49.316;8.558;2022-07-29T08:43:33;5.23;;;4.93;;
44456;SDS011;30159;49.316;8.558;2022-07-29T08:46:02;4.77;;;4.57;;
44456;SDS011;30159;49.316;8.558;2022-07-29T08:48:28;5.17;;;4.77;;
44456;SDS011;30159;49.316;8.558;2022-07-29T08:50:56;4.50;;;4.30;;
44456;SDS011;30159;49.316;8.558;2022-07-29T08:53:24;6.33;;;5.83;;
44456;SDS011;30159;49.316;8.558;2022-07-29T08:55:55;5.67;;;5.27;;
44456;SDS011;30159;49.316;8.558;2022-07-29T08:58:23;5.23;;;4.93;;
44456;SDS011;30159;49.316;8.558;2022-07-29T09:00:53;5.87;;;5.43;;
44456;SDS011;30159;49.316;8.558;2022-07-29T09:03:22;4.47;;;4.23;;
44456;SDS011;30159;49.316;8.558;2022-07-29T09:05:50;4.97;;;4.73;;
44456;SDS011;30159;49.316;8.558;2022-07-29T09:08:18;4.80;;;4.50;;
44456;SDS011;30159;49.316;8.558;2022-07-29T09:10:45;4.73;;;4.53;;
44456;SDS011;30159;49.316;8.558;2022-07-29T09:13:12;4.57;;;4.27;;
44456;SDS011;30159;49.316;8.558;2022-07-29T09:15:38;4.83;;;4.53;;
44456;SDS011;30159;49.316;8.558;2022-07-29T09:18:06;5.10;;;4.90;;
44456;SDS011;30159;49.316;8.558;2022-07-29T09:20:33;5.20;;;4.90;;
44456;SDS011;30159;49.316;8.558;2022-07-29T09:23:13;5.60;;;5.40;;
44456;SDS011;30159;49.316;8.558;2022-07-29T09:25:40;5.20;;;4.70;;
44456;SDS011;30159;49.316;8.558;2022-07-29T09:28:08;5.17;;;4.90;;
44456;SDS011;30159;49.316;8.558;2022-07-29T09:30:35;5.13;;;4.90;;
44456;SDS011;30159;49.316;8.558;2022-07-29T09:33:02;4.67;;;4.37;;
44456;SDS011;30159;49.316;8.558;2022-07-29T09:35:31;5.13;;;4.83;;
44456;SDS011;30159;49.316;8.558;2022-07-29T09:37:57;7.80;;;4.33;;
44456;SDS011;30159;49.316;8.558;2022-07-29T09:40:36;5.13;;;4.83;;
44456;SDS011;30159;49.316;8.558;2022-07-29T09:43:09;5.37;;;5.10;;
44456;SDS011;30159;49.316;8.558;2022-07-29T09:45:37;4.70;;;4.40;;
44456;SDS011;30159;49.316;8.558;2022-07-29T09:48:12;4.20;;;4.00;;
44456;SDS011;30159;49.316;8.558;2022-07-29T09:50:41;5.37;;;4.97;;
44456;SDS011;30159;49.316;8.558;2022-07-29T09:53:10;4.50;;;4.20;;
44456;SDS011;30159;49.316;8.558;2022-07-29T09:55:47;4.17;;;3.97;;
44456;SDS011;30159;49.316;8.558;2022-07-29T09:58:15;5.00;;;4.70;;
44456;SDS011;30159;49.316;8.558;2022-07-29T10:00:43;4.47;;;4.23;;
44456;SDS011;30159;49.316;8.558;2022-07-29T10:03:10;5.43;;;4.93;;
44456;SDS011;30159;49.316;8.558;2022-07-29T10:05:37;4.97;;;4.67;;
44456;SDS011;30159;49.316;8.558;2022-07-29T10:08:06;4.20;;;4.00;;
44456;SDS011;30159;49.316;8.558;2022-07-29T10:10:34;4.80;;;4.50;;
44456;SDS011;30159;49.316;8.558;2022-07-29T10:13:03;4.37;;;4.17;;
44456;SDS011;30159;49.316;8.558;2022-07-29T10:15:32;4.90;;;4.37;;
44456;SDS011;30159;49.316;8.558;2022-07-29T10:18:04;4.53;;;4.20;;
44456;SDS011;30159;49.316;8.558;2022-07-29T10:20:32;7.63;;;5.20;;
44456;SDS011;30159;49.316;8.558;2022-07-29T10:22:59;5.80;;;5.33;;
44456;SDS011;30159;49.316;8.558;2022-07-29T10:25:27;5.20;;;4.80;;
44456;SDS011;30159;49.316;8.558;2022-07-29T10:27:54;5.10;;;4.47;;
44456;SDS011;30159;49.316;8.558;2022-07-29T10:30:21;4.50;;;4.20;;
44456;SDS011;30159;49.316;8.558;2022-07-29T10:35:47;4.53;;;4.33;;
44456;SDS011;30159;49.316;8.558;2022-07-29T10:38:30;4.10;;;3.80;;
44456;SDS011;30159;49.316;8.558;2022-07-29T10:41:12;5.20;;;5.00;;
44456;SDS011;30159;49.316;8.558;2022-07-29T10:43:57;4.67;;;4.47;;
44456;SDS011;30159;49.316;8.558;2022-07-29T10:46:26;3.90;;;3.70;;
44456;SDS011;30159;49.316;8.558;2022-07-29T10:49:10;5.10;;;4.70;;
44456;SDS011;30159;49.316;8.558;2022-07-29T10:54:47;5.20;;;4.90;;
44456;SDS011;30159;49.316;8.558;2022-07-29T10:57:18;4.57;;;4.37;;
44456;SDS011;30159;49.316;8.558;2022-07-29T10:59:47;4.90;;;4.50;;
44456;SDS011;30159;49.316;8.558;2022-07-29T11:02:45;4.73;;;4.37;;
44456;SDS011;30159;49.316;8.558;2022-07-29T11:05:17;4.57;;;4.27;;
44456;SDS011;30159;49.316;8.558;2022-07-29T11:10:45;3.90;;;3.70;;
44456;SDS011;30159;49.316;8.558;2022-07-29T11:13:13;3.97;;;3.77;;
44456;SDS011;30159;49.316;8.558;2022-07-29T11:16:12;4.70;;;4.50;;
44456;SDS011;30159;49.316;8.558;2022-07-29T11:21:44;4.53;;;4.33;;
44456;SDS011;30159;49.316;8.558;2022-07-29T11:24:12;4.00;;;3.80;;
44456;SDS011;30159;49.316;8.558;2022-07-29T11:26:39;5.20;;;4.93;;
44456;SDS011;30159;49.316;8.558;2022-07-29T11:29:13;4.00;;;3.80;;
44456;SDS011;30159;49.316;8.558;2022-07-29T11:31:45;4.87;;;4.53;;
44456;SDS011;30159;49.316;8.558;2022-07-29T11:34:23;4.40;;;4.00;;
44456;SDS011;30159;49.316;8.558;2022-07-29T11:40:10;7.40;;;4.80;;
44456;SDS011;30159;49.316;8.558;2022-07-29T11:42:39;4.80;;;4.50;;
44456;SDS011;30159;49.316;8.558;2022-07-29T11:45:11;5.07;;;4.67;;
44456;SDS011;30159;49.316;8.558;2022-07-29T11:47:49;5.60;;;5.27;;
44456;SDS011;30159;49.316;8.558;2022-07-29T11:50:26;9.57;;;4.57;;
44456;SDS011;30159;49.316;8.558;2022-07-29T11:52:58;4.77;;;4.57;;
44456;SDS011;30159;49.316;8.558;2022-07-29T11:55:26;4.87;;;4.67;;
44456;SDS011;30159;49.316;8.558;2022-07-29T11:57:54;3.97;;;3.77;;
44456;SDS011;30159;49.316;8.558;2022-07-29T12:00:23;4.70;;;4.47;;
44456;SDS011;30159;49.316;8.558;2022-07-29T12:02:54;6.17;;;4.27;;
44456;SDS011;30159;49.316;8.558;2022-07-29T12:05:29;4.50;;;4.20;;
44456;SDS011;30159;49.316;8.558;2022-07-29T12:08:05;4.67;;;4.23;;
44456;SDS011;30159;49.316;8.558;2022-07-29T12:10:33;4.43;;;4.13;;
44456;SDS011;30159;49.316;8.558;2022-07-29T12:12:59;4.27;;;4.07;;
44456;SDS011;30159;49.316;8.558;2022-07-29T12:15:26;5.10;;;3.90;;
44456;SDS011;30159;49.316;8.558;2022-07-29T12:17:53;4.70;;;4.47;;
44456;SDS011;30159;49.316;8.558;2022-07-29T12:20:23;5.70;;;4.50;;
44456;SDS011;30159;49.316;8.558;2022-07-29T12:22:51;4.27;;;4.07;;
44456;SDS011;30159;49.316;8.558;2022-07-29T12:25:21;5.43;;;5.03;;
44456;SDS011;30159;49.316;8.558;2022-07-29T12:27:59;4.60;;;4.23;;
44456;SDS011;30159;49.316;8.558;2022-07-29T12:30:40;5.17;;;4.70;;
44456;SDS011;30159;49.316;8.558;2022-07-29T12:33:12;4.73;;;4.43;;
44456;SDS011;30159;49.316;8.558;2022-07-29T12:35:45;4.20;;;4.00;;
44456;SDS011;30159;49.316;8.558;2022-07-29T12:38:14;5.10;;;4.07;;
44456;SDS011;30159;49.316;8.558;2022-07-29T12:40:42;4.13;;;3.93;;
44456;SDS011;30159;49.316;8.558;2022-07-29T12:43:11;3.93;;;3.73;;
44456;SDS011;30159;49.316;8.558;2022-07-29T12:45:39;3.63;;;3.43;;
44456;SDS011;30159;49.316;8.558;2022-07-29T12:48:07;4.13;;;3.83;;
44456;SDS011;30159;49.316;8.558;2022-07-29T12:50:36;4.20;;;4.00;;
44456;SDS011;30159;49.316;8.558;2022-07-29T12:53:17;4.47;;;4.27;;
44456;SDS011;30159;49.316;8.558;2022-07-29T12:55:46;4.10;;;3.80;;
44456;SDS011;30159;49.316;8.558;2022-07-29T12:58:25;4.57;;;4.30;;
44456;SDS011;30159;49.316;8.558;2022-07-29T13:01:03;5.87;;;3.87;;
44456;SDS011;30159;49.316;8.558;2022-07-29T13:03:44;4.30;;;4.10;;
44456;SDS011;30159;49.316;8.558;2022-07-29T13:06:32;3.90;;;3.70;;
44456;SDS011;30159;49.316;8.558;2022-07-29T13:09:03;4.00;;;3.73;;
44456;SDS011;30159;49.316;8.558;2022-07-29T13:11:35;5.40;;;3.67;;
44456;SDS011;30159;49.316;8.558;2022-07-29T13:14:04;3.90;;;3.70;;
44456;SDS011;30159;49.316;8.558;2022-07-29T13:16:32;4.50;;;4.00;;
44456;SDS011;30159;49.316;8.558;2022-07-29T13:19:03;4.63;;;4.33;;
44456;SDS011;30159;49.316;8.558;2022-07-29T13:21:31;3.80;;;3.60;;
44456;SDS011;30159;49.316;8.558;2022-07-29T13:23:58;4.17;;;3.87;;
44456;SDS011;30159;49.316;8.558;2022-07-29T13:26:24;3.90;;;3.70;;
44456;SDS011;30159;49.316;8.558;2022-07-29T13:28:52;4.40;;;4.20;;
44456;SDS011;30159;49.316;8.558;2022-07-29T13:31:19;4.43;;;3.90;;
44456;SDS011;30159;49.316;8.558;2022-07-29T13:33:47;4.37;;;3.90;;
44456;SDS011;30159;49.316;8.558;2022-07-29T13:36:13;5.53;;;3.90;;
44456;SDS011;30159;49.316;8.558;2022-07-29T13:38:40;4.33;;;4.13;;
44456;SDS011;30159;49.316;8.558;2022-07-29T13:41:07;4.17;;;3.97;;
44456;SDS011;30159;49.316;8.558;2022-07-29T13:43:34;5.17;;;4.43;;
44456;SDS011;30159;49.316;8.558;2022-07-29T13:46:02;3.70;;;3.40;;
44456;SDS011;30159;49.316;8.558;2022-07-29T13:48:28;3.77;;;3.47;;
44456;SDS011;30159;49.316;8.558;2022-07-29T13:50:56;3.83;;;3.63;;
44456;SDS011;30159;49.316;8.558;2022-07-29T13:53:22;6.47;;;4.37;;
44456;SDS011;30159;49.316;8.558;2022-07-29T13:55:49;3.80;;;3.60;;
44456;SDS011;30159;49.316;8.558;2022-07-29T13:58:16;5.30;;;3.60;;
44456;SDS011;30159;49.316;8.558;2022-07-29T14:00:45;3.13;;;2.93;;
44456;SDS011;30159;49.316;8.558;2022-07-29T14:03:14;3.27;;;3.07;;
44456;SDS011;30159;49.316;8.558;2022-07-29T14:05:40;2.67;;;2.57;;
44456;SDS011;30159;49.316;8.558;2022-07-29T14:08:07;4.43;;;2.77;;
44456;SDS011;30159;49.316;8.558;2022-07-29T14:10:34;4.77;;;4.43;;
44456;SDS011;30159;49.316;8.558;2022-07-29T14:13:00;2.83;;;2.63;;
44456;SDS011;30159;49.316;8.558;2022-07-29T14:15:27;2.90;;;2.70;;
44456;SDS011;30159;49.316;8.558;2022-07-29T14:17:53;3.00;;;2.90;;
44456;SDS011;30159;49.316;8.558;2022-07-29T14:20:21;3.57;;;3.37;;
44456;SDS011;30159;49.316;8.558;2022-07-29T14:22:48;3.77;;;3.50;;
44456;SDS011;30159;49.316;8.558;2022-07-29T14:25:15;3.27;;;3.07;;
44456;SDS011;30159;49.316;8.558;2022-07-29T14:27:41;3.10;;;2.90;;
44456;SDS011;30159;49.316;8.558;2022-07-29T14:30:09;3.47;;;3.27;;
44456;SDS011;30159;49.316;8.558;2022-07-29T14:32:36;3.40;;;3.30;;
44456;SDS011;30159;49.316;8.558;2022-07-29T14:35:03;6.30;;;4.60;;
44456;SDS011;30159;49.316;8.558;2022-07-29T14:37:32;6.27;;;3.40;;
44456;SDS011;30159;49.316;8.558;2022-07-29T14:39:59;3.23;;;3.03;;
44456;SDS011;30159;49.316;8.558;2022-07-29T14:42:28;3.13;;;2.93;;
44456;SDS011;30159;49.316;8.558;2022-07-29T14:44:55;2.63;;;2.43;;
44456;SDS011;30159;49.316;8.558;2022-07-29T14:47:22;4.20;;;3.10;;
44456;SDS011;30159;49.316;8.558;2022-07-29T14:49:48;2.90;;;2.70;;
44456;SDS011;30159;49.316;8.558;2022-07-29T14:52:15;3.53;;;2.80;;
44456;SDS011;30159;49.316;8.558;2022-07-29T14:54:43;2.60;;;2.50;;
44456;SDS011;30159;49.316;8.558;2022-07-29T14:57:09;2.10;;;2.00;;
44456;SDS011;30159;49.316;8.558;2022-07-29T14:59:37;2.43;;;2.27;;
44456;SDS011;30159;49.316;8.558;2022-07-29T15:02:03;1.90;;;1.80;;
44456;SDS011;30159;49.316;8.558;2022-07-29T15:04:30;8.07;;;2.17;;
44456;SDS011;30159;49.316;8.558;2022-07-29T15:06:57;1.77;;;1.67;;
44456;SDS011;30159;49.316;8.558;2022-07-29T15:09:23;1.80;;;1.70;;
44456;SDS011;30159;49.316;8.558;2022-07-29T15:11:51;2.13;;;2.03;;
44456;SDS011;30159;49.316;8.558;2022-07-29T15:14:18;1.70;;;1.60;;
44456;SDS011;30159;49.316;8.558;2022-07-29T15:16:45;3.20;;;1.40;;